createdAt,value
2022-10-20T00:00:02.452Z,1022.64
2022-10-20T00:01:02.448Z,1022.65
2022-10-20T00:02:02.444Z,1022.67
2022-10-20T00:03:02.453Z,1022.68
2022-10-20T00:04:02.406Z,1022.70
2022-10-20T00:05:02.406Z,1022.69
2022-10-20T00:06:02.449Z,1022.69
2022-10-20T00:07:02.373Z,1022.67
2022-10-20T00:08:02.359Z,1022.66
2022-10-20T00:09:02.447Z,1022.66
2022-10-20T00:10:02.519Z,1022.66
2022-10-20T00:11:02.425Z,1022.67
2022-10-20T00:12:02.460Z,1022.66
2022-10-20T00:13:02.360Z,1022.67
2022-10-20T00:14:02.478Z,1022.66
2022-10-20T00:15:02.327Z,1022.66
2022-10-20T00:16:02.346Z,1022.66
2022-10-20T00:17:02.387Z,1022.66
2022-10-20T00:18:02.236Z,1022.66
2022-10-20T00:19:02.225Z,1022.64
2022-10-20T00:20:02.298Z,1022.63
2022-10-20T00:21:02.201Z,1022.62
2022-10-20T00:22:02.207Z,1022.63
2022-10-20T00:23:02.180Z,1022.64
2022-10-20T00:24:02.180Z,1022.65
2022-10-20T00:25:02.161Z,1022.66
2022-10-20T00:26:02.155Z,1022.66
2022-10-20T00:27:02.147Z,1022.65
2022-10-20T00:28:02.131Z,1022.64
2022-10-20T00:29:02.124Z,1022.62
2022-10-20T00:30:02.135Z,1022.61
2022-10-20T00:31:02.106Z,1022.59
2022-10-20T00:32:02.120Z,1022.59
2022-10-20T00:33:02.081Z,1022.59
2022-10-20T00:34:02.072Z,1022.60
2022-10-20T00:35:02.061Z,1022.60
2022-10-20T00:36:02.072Z,1022.59
2022-10-20T00:37:02.040Z,1022.58
2022-10-20T00:38:02.030Z,1022.57
2022-10-20T00:39:02.024Z,1022.57
2022-10-20T00:40:02.041Z,1022.57
2022-10-20T00:41:02.008Z,1022.56
2022-10-20T00:42:02.005Z,1022.55
2022-10-20T00:43:01.983Z,1022.53
2022-10-20T00:44:01.981Z,1022.51
2022-10-20T00:45:01.954Z,1022.50
2022-10-20T00:46:02.006Z,1022.49
2022-10-20T00:47:01.949Z,1022.49
2022-10-20T00:48:01.941Z,1022.48
2022-10-20T00:49:01.917Z,1022.46
2022-10-20T00:50:01.914Z,1022.43
2022-10-20T00:51:01.904Z,1022.40
2022-10-20T00:52:01.889Z,1022.37
2022-10-20T00:53:01.897Z,1022.35
2022-10-20T00:54:01.862Z,1022.33
2022-10-20T00:55:01.842Z,1022.31
2022-10-20T00:56:01.848Z,1022.29
2022-10-20T00:58:01.816Z,1022.24
2022-10-20T00:59:01.808Z,1022.22
2022-10-20T01:00:01.888Z,1022.22
2022-10-20T01:01:01.795Z,1022.23
2022-10-20T01:02:01.844Z,1022.22
2022-10-20T01:03:01.762Z,1022.22
2022-10-20T01:04:01.757Z,1022.19
2022-10-20T01:05:01.749Z,1022.18
2022-10-20T01:06:01.743Z,1022.17
2022-10-20T01:07:01.721Z,1022.15
2022-10-20T01:08:01.753Z,1022.14
2022-10-20T01:09:01.749Z,1022.13
2022-10-20T01:10:01.790Z,1022.13
2022-10-20T01:11:01.693Z,1022.10
2022-10-20T01:12:01.672Z,1022.11
2022-10-20T01:13:01.662Z,1022.11
2022-10-20T01:14:01.654Z,1022.13
2022-10-20T01:15:01.640Z,1022.13
2022-10-20T01:16:01.646Z,1022.14
2022-10-20T01:17:01.647Z,1022.12
2022-10-20T01:18:01.640Z,1022.11
2022-10-20T01:19:01.594Z,1022.10
2022-10-20T01:20:01.615Z,1022.09
2022-10-20T01:21:01.589Z,1022.09
2022-10-20T01:22:01.576Z,1022.08
2022-10-20T01:23:01.559Z,1022.07
2022-10-20T01:24:01.551Z,1022.07
2022-10-20T01:25:01.531Z,1022.04
2022-10-20T01:26:01.539Z,1022.03
2022-10-20T01:27:01.518Z,1022.01
2022-10-20T01:28:01.508Z,1021.99
2022-10-20T01:29:01.492Z,1021.99
2022-10-20T01:30:01.502Z,1021.97
2022-10-20T01:31:01.493Z,1021.94
2022-10-20T01:32:01.466Z,1021.93
2022-10-20T01:33:01.451Z,1021.90
2022-10-20T01:34:01.470Z,1021.88
2022-10-20T01:35:01.439Z,1021.87
2022-10-20T01:36:01.441Z,1021.88
2022-10-20T01:37:01.409Z,1021.87
2022-10-20T01:38:01.403Z,1021.87
2022-10-20T01:39:01.390Z,1021.86
2022-10-20T01:40:01.428Z,1021.85
2022-10-20T01:41:01.385Z,1021.81
2022-10-20T01:42:01.368Z,1021.79
2022-10-20T01:43:01.352Z,1021.77
2022-10-20T01:44:01.341Z,1021.77
2022-10-20T01:45:01.328Z,1021.77
2022-10-20T01:46:01.341Z,1021.77
2022-10-20T01:47:01.313Z,1021.75
2022-10-20T01:48:01.296Z,1021.74
2022-10-20T01:49:01.291Z,1021.72
2022-10-20T01:50:01.274Z,1021.70
2022-10-20T01:51:01.287Z,1021.70
2022-10-20T01:52:01.265Z,1021.70
2022-10-20T01:53:01.258Z,1021.71
2022-10-20T01:54:01.233Z,1021.74
2022-10-20T01:55:01.229Z,1021.74
2022-10-20T01:56:01.252Z,1021.74
2022-10-20T01:57:01.221Z,1021.75
2022-10-20T01:58:01.195Z,1021.71
2022-10-20T01:59:01.201Z,1021.71
2022-10-20T02:00:01.189Z,1021.68
2022-10-20T02:01:01.178Z,1021.66
2022-10-20T02:02:01.152Z,1021.62
2022-10-20T02:03:01.151Z,1021.60
2022-10-20T02:04:01.132Z,1021.58
2022-10-20T02:05:01.124Z,1021.56
2022-10-20T02:06:01.130Z,1021.56
2022-10-20T02:07:01.115Z,1021.53
2022-10-20T02:08:01.094Z,1021.52
2022-10-20T02:09:01.175Z,1021.51
2022-10-20T02:10:01.071Z,1021.50
2022-10-20T02:11:01.079Z,1021.50
2022-10-20T02:12:01.046Z,1021.48
2022-10-20T02:13:01.052Z,1021.47
2022-10-20T02:14:01.031Z,1021.43
2022-10-20T02:15:01.027Z,1021.40
2022-10-20T02:16:01.030Z,1021.37
2022-10-20T02:17:01.002Z,1021.34
2022-10-20T02:18:00.987Z,1021.34
2022-10-20T02:19:01.012Z,1021.33
2022-10-20T02:20:00.968Z,1021.32
2022-10-20T02:21:00.975Z,1021.31
2022-10-20T02:22:00.949Z,1021.32
2022-10-20T02:23:00.942Z,1021.32
2022-10-20T02:24:00.924Z,1021.33
2022-10-20T02:25:00.921Z,1021.33
2022-10-20T02:26:00.926Z,1021.33
2022-10-20T02:27:00.899Z,1021.33
2022-10-20T02:28:00.905Z,1021.30
2022-10-20T02:29:00.897Z,1021.26
2022-10-20T02:30:00.864Z,1021.21
2022-10-20T02:31:00.881Z,1021.18
2022-10-20T02:32:00.845Z,1021.16
2022-10-20T02:33:00.862Z,1021.15
2022-10-20T02:34:00.829Z,1021.16
2022-10-20T02:35:05.013Z,1021.16
2022-10-20T02:36:00.810Z,1021.17
2022-10-20T02:37:00.815Z,1021.19
2022-10-20T02:38:00.780Z,1021.18
2022-10-20T02:39:00.782Z,1021.19
2022-10-20T02:40:00.767Z,1021.22
2022-10-20T02:41:00.761Z,1021.25
2022-10-20T02:42:00.760Z,1021.26
2022-10-20T02:43:00.743Z,1021.25
2022-10-20T02:44:00.719Z,1021.23
2022-10-20T02:45:00.737Z,1021.19
2022-10-20T02:46:00.709Z,1021.17
2022-10-20T02:47:00.710Z,1021.15
2022-10-20T02:48:00.686Z,1021.14
2022-10-20T02:49:00.677Z,1021.13
2022-10-20T02:50:00.664Z,1021.12
2022-10-20T02:51:00.659Z,1021.09
2022-10-20T02:52:00.681Z,1021.09
2022-10-20T02:53:00.658Z,1021.08
2022-10-20T02:54:00.616Z,1021.08
2022-10-20T02:55:00.625Z,1021.08
2022-10-20T02:56:00.637Z,1021.07
2022-10-20T02:57:00.603Z,1021.06
2022-10-20T02:58:00.578Z,1021.04
2022-10-20T02:59:00.589Z,1021.02
2022-10-20T03:00:00.567Z,1021.00
2022-10-20T03:01:00.565Z,1021.01
2022-10-20T03:02:00.559Z,1021.00
2022-10-20T03:03:00.541Z,1021.01
2022-10-20T03:04:00.517Z,1021.03
2022-10-20T03:05:00.516Z,1021.05
2022-10-20T03:06:00.505Z,1021.04
2022-10-20T03:07:00.489Z,1021.05
2022-10-20T03:08:00.492Z,1021.05
2022-10-20T03:09:00.517Z,1021.03
2022-10-20T03:10:00.455Z,1021.02
2022-10-20T03:11:00.461Z,1021.01
2022-10-20T03:12:00.439Z,1021.04
2022-10-20T03:13:00.431Z,1021.05
2022-10-20T03:14:00.419Z,1021.05
2022-10-20T03:15:00.428Z,1021.04
2022-10-20T03:16:00.407Z,1021.04
2022-10-20T03:17:00.387Z,1021.04
2022-10-20T03:18:00.373Z,1021.04
2022-10-20T03:19:03.918Z,1021.01
2022-10-20T03:20:00.360Z,1021.00
2022-10-20T03:21:00.364Z,1020.99
2022-10-20T03:22:00.351Z,1020.99
2022-10-20T03:23:00.331Z,1020.98
2022-10-20T03:24:00.317Z,1020.96
2022-10-20T03:25:00.338Z,1020.94
2022-10-20T03:26:00.305Z,1020.92
2022-10-20T03:27:00.297Z,1020.89
2022-10-20T03:28:00.291Z,1020.87
2022-10-20T03:29:00.270Z,1020.84
2022-10-20T03:30:00.262Z,1020.83
2022-10-20T03:31:00.274Z,1020.82
2022-10-20T03:32:06.277Z,1020.82
2022-10-20T03:33:00.232Z,1020.83
2022-10-20T03:34:00.214Z,1020.84
2022-10-20T03:35:00.207Z,1020.82
2022-10-20T03:36:00.206Z,1020.84
2022-10-20T03:37:00.196Z,1020.84
2022-10-20T03:38:00.168Z,1020.82
2022-10-20T03:39:00.168Z,1020.82
2022-10-20T03:40:00.178Z,1020.80
2022-10-20T03:42:00.138Z,1020.78
2022-10-20T03:43:00.131Z,1020.78
2022-10-20T03:44:00.109Z,1020.79
2022-10-20T03:45:00.124Z,1020.77
2022-10-20T03:46:00.118Z,1020.76
2022-10-20T03:47:00.101Z,1020.77
2022-10-20T03:48:00.077Z,1020.78
2022-10-20T03:49:00.081Z,1020.80
2022-10-20T03:50:00.072Z,1020.82
2022-10-20T03:51:00.044Z,1020.82
2022-10-20T03:52:00.039Z,1020.83
2022-10-20T03:53:00.020Z,1020.80
2022-10-20T03:54:00.006Z,1020.78
2022-10-20T03:54:59.999Z,1020.76
2022-10-20T03:55:59.987Z,1020.77
2022-10-20T03:57:00.011Z,1020.75
2022-10-20T03:57:59.968Z,1020.76
2022-10-20T03:58:59.995Z,1020.77
2022-10-20T03:59:59.945Z,1020.78
2022-10-20T04:00:59.954Z,1020.76
2022-10-20T04:02:00.010Z,1020.79
2022-10-20T04:02:59.937Z,1020.79
2022-10-20T04:03:59.916Z,1020.78
2022-10-20T04:04:59.903Z,1020.77
2022-10-20T04:05:59.913Z,1020.75
2022-10-20T04:06:59.877Z,1020.72
2022-10-20T04:07:59.864Z,1020.73
2022-10-20T04:08:59.931Z,1020.74
2022-10-20T04:09:59.845Z,1020.74
2022-10-20T04:10:59.870Z,1020.75
2022-10-20T04:11:59.833Z,1020.75
2022-10-20T04:12:59.822Z,1020.74
2022-10-20T04:13:59.803Z,1020.72
2022-10-20T04:14:59.798Z,1020.70
2022-10-20T04:15:59.799Z,1020.69
2022-10-20T04:16:59.777Z,1020.68
2022-10-20T04:17:59.764Z,1020.68
2022-10-20T04:18:59.761Z,1020.69
2022-10-20T04:19:59.754Z,1020.69
2022-10-20T04:20:59.765Z,1020.69
2022-10-20T04:21:59.720Z,1020.68
2022-10-20T04:22:59.714Z,1020.69
2022-10-20T04:23:59.700Z,1020.70
2022-10-20T04:24:59.701Z,1020.67
2022-10-20T04:25:59.702Z,1020.65
2022-10-20T04:26:59.674Z,1020.64
2022-10-20T04:27:59.661Z,1020.62
2022-10-20T04:28:59.654Z,1020.60
2022-10-20T04:29:59.639Z,1020.58
2022-10-20T04:30:59.647Z,1020.55
2022-10-20T04:31:59.620Z,1020.52
2022-10-20T04:32:59.613Z,1020.50
2022-10-20T04:33:59.596Z,1020.51
2022-10-20T04:34:59.628Z,1020.51
2022-10-20T04:35:59.598Z,1020.51
2022-10-20T04:36:59.569Z,1020.49
2022-10-20T04:37:59.555Z,1020.48
2022-10-20T04:38:59.555Z,1020.47
2022-10-20T04:39:59.538Z,1020.46
2022-10-20T04:41:01.894Z,1020.46
2022-10-20T04:41:59.515Z,1020.46
2022-10-20T04:42:59.535Z,1020.44
2022-10-20T04:43:59.503Z,1020.42
2022-10-20T04:44:59.498Z,1020.41
2022-10-20T04:46:01.548Z,1020.39
2022-10-20T04:46:59.473Z,1020.39
2022-10-20T04:47:59.457Z,1020.37
2022-10-20T04:48:59.450Z,1020.39
2022-10-20T04:49:59.444Z,1020.38
2022-10-20T04:50:59.437Z,1020.36
2022-10-20T04:52:01.169Z,1020.34
2022-10-20T04:52:59.416Z,1020.33
2022-10-20T04:53:59.462Z,1020.30
2022-10-20T04:54:59.400Z,1020.29
2022-10-20T04:55:59.382Z,1020.25
2022-10-20T04:56:59.366Z,1020.23
2022-10-20T04:57:59.636Z,1020.19
2022-10-20T04:58:59.438Z,1020.20
2022-10-20T04:59:59.340Z,1020.21
2022-10-20T05:00:59.326Z,1020.19
2022-10-20T05:01:59.437Z,1020.19
2022-10-20T05:02:59.406Z,1020.18
2022-10-20T05:03:59.414Z,1020.17
2022-10-20T05:04:59.296Z,1020.19
2022-10-20T05:05:59.237Z,1020.16
2022-10-20T05:06:59.264Z,1020.12
2022-10-20T05:07:59.251Z,1020.12
2022-10-20T05:08:59.348Z,1020.10
2022-10-20T05:09:59.242Z,1020.09
2022-10-20T05:10:59.229Z,1020.11
2022-10-20T05:11:59.211Z,1020.10
2022-10-20T05:12:59.201Z,1020.10
2022-10-20T05:13:59.154Z,1020.09
2022-10-20T05:14:59.142Z,1020.07
2022-10-20T05:15:59.120Z,1020.08
2022-10-20T05:16:59.107Z,1020.08
2022-10-20T05:17:59.103Z,1020.08
2022-10-20T05:18:59.089Z,1020.07
2022-10-20T05:19:59.151Z,1020.05
2022-10-20T05:21:12.851Z,1020.02
2022-10-20T05:21:59.060Z,1019.99
2022-10-20T05:22:59.051Z,1019.98
2022-10-20T05:23:59.037Z,1019.95
2022-10-20T05:25:12.784Z,1019.95
2022-10-20T05:25:59.018Z,1019.98
2022-10-20T05:26:59.011Z,1020.00
2022-10-20T05:27:58.997Z,1020.00
2022-10-20T05:28:59.004Z,1020.02
2022-10-20T05:29:58.997Z,1019.99
2022-10-20T05:31:01.412Z,1020.03
2022-10-20T05:31:58.952Z,1020.04
2022-10-20T05:32:58.960Z,1020.04
2022-10-20T05:33:58.932Z,1020.05
2022-10-20T05:34:58.944Z,1020.07
2022-10-20T05:35:58.910Z,1020.07
2022-10-20T05:36:58.906Z,1020.07
2022-10-20T05:37:58.894Z,1020.05
2022-10-20T05:38:58.885Z,1020.06
2022-10-20T05:39:58.881Z,1020.06
2022-10-20T05:40:58.871Z,1020.05
2022-10-20T05:41:58.850Z,1020.03
2022-10-20T05:42:58.851Z,1020.05
2022-10-20T05:43:58.846Z,1020.04
2022-10-20T05:44:58.841Z,1020.05
2022-10-20T05:45:58.837Z,1020.05
2022-10-20T05:46:58.848Z,1020.05
2022-10-20T05:47:58.801Z,1020.07
2022-10-20T05:48:58.780Z,1020.06
2022-10-20T05:49:58.785Z,1020.08
2022-10-20T05:50:58.763Z,1020.10
2022-10-20T05:51:58.749Z,1020.12
2022-10-20T05:52:58.741Z,1020.12
2022-10-20T05:53:58.740Z,1020.13
2022-10-20T05:54:58.772Z,1020.14
2022-10-20T05:55:58.713Z,1020.16
2022-10-20T05:56:58.713Z,1020.17
2022-10-20T05:57:58.683Z,1020.17
2022-10-20T05:58:58.681Z,1020.17
2022-10-20T05:59:58.685Z,1020.16
2022-10-20T06:00:58.681Z,1020.18
2022-10-20T06:01:58.660Z,1020.21
2022-10-20T06:02:58.644Z,1020.19
2022-10-20T06:03:58.630Z,1020.18
2022-10-20T06:04:58.636Z,1020.14
2022-10-20T06:05:58.616Z,1020.17
2022-10-20T06:06:58.604Z,1020.16
2022-10-20T06:07:58.607Z,1020.17
2022-10-20T06:08:58.686Z,1020.18
2022-10-20T06:09:58.586Z,1020.20
2022-10-20T06:10:58.561Z,1020.19
2022-10-20T06:11:58.603Z,1020.21
2022-10-20T06:12:58.543Z,1020.24
2022-10-20T06:13:58.558Z,1020.21
2022-10-20T06:14:58.513Z,1020.24
2022-10-20T06:15:58.538Z,1020.24
2022-10-20T06:16:58.532Z,1020.22
2022-10-20T06:17:58.502Z,1020.24
2022-10-20T06:18:58.480Z,1020.24
2022-10-20T06:19:58.460Z,1020.22
2022-10-20T06:20:58.464Z,1020.24
2022-10-20T06:22:02.500Z,1020.25
2022-10-20T06:22:58.484Z,1020.23
2022-10-20T06:23:58.439Z,1020.26
2022-10-20T06:24:58.440Z,1020.27
2022-10-20T06:25:58.428Z,1020.29
2022-10-20T06:26:58.389Z,1020.28
2022-10-20T06:27:58.389Z,1020.28
2022-10-20T06:29:03.561Z,1020.27
2022-10-20T06:29:58.373Z,1020.25
2022-10-20T06:30:58.364Z,1020.25
2022-10-20T06:31:58.352Z,1020.26
2022-10-20T06:32:58.381Z,1020.27
2022-10-20T06:33:58.382Z,1020.27
2022-10-20T06:34:58.328Z,1020.30
2022-10-20T06:35:58.336Z,1020.29
2022-10-20T06:36:58.321Z,1020.28
2022-10-20T06:37:58.317Z,1020.28
2022-10-20T06:38:58.314Z,1020.27
2022-10-20T06:39:58.283Z,1020.27
2022-10-20T06:40:58.265Z,1020.27
2022-10-20T06:41:58.248Z,1020.24
2022-10-20T06:42:58.244Z,1020.24
2022-10-20T06:43:58.238Z,1020.25
2022-10-20T06:44:58.213Z,1020.25
2022-10-20T06:45:58.235Z,1020.27
2022-10-20T06:46:58.189Z,1020.26
2022-10-20T06:47:58.186Z,1020.26
2022-10-20T06:48:58.938Z,1020.28
2022-10-20T06:49:58.182Z,1020.27
2022-10-20T06:50:58.142Z,1020.27
2022-10-20T06:51:58.196Z,1020.25
2022-10-20T06:52:58.132Z,1020.24
2022-10-20T06:53:58.134Z,1020.22
2022-10-20T06:54:58.116Z,1020.21
2022-10-20T06:55:58.112Z,1020.18
2022-10-20T06:56:58.092Z,1020.14
2022-10-20T06:57:58.076Z,1020.14
2022-10-20T06:58:58.083Z,1020.17
2022-10-20T06:59:58.091Z,1020.12
2022-10-20T07:00:58.036Z,1020.14
2022-10-20T07:01:58.120Z,1020.12
2022-10-20T07:02:58.032Z,1020.12
2022-10-20T07:03:58.029Z,1020.13
2022-10-20T07:04:58.030Z,1020.14
2022-10-20T07:05:58.013Z,1020.13
2022-10-20T07:06:58.006Z,1020.13
2022-10-20T07:07:57.990Z,1020.11
2022-10-20T07:08:58.020Z,1020.11
2022-10-20T07:09:57.953Z,1020.09
2022-10-20T07:10:57.951Z,1020.10
2022-10-20T07:11:57.937Z,1020.09
2022-10-20T07:12:57.918Z,1020.07
2022-10-20T07:13:57.919Z,1020.07
2022-10-20T07:14:57.904Z,1020.07
2022-10-20T07:15:57.885Z,1020.07
2022-10-20T07:16:57.870Z,1020.04
2022-10-20T07:17:57.874Z,1020.04
2022-10-20T07:18:57.875Z,1020.03
2022-10-20T07:19:57.867Z,1020.01
2022-10-20T07:20:57.845Z,1020.02
2022-10-20T07:21:57.829Z,1020.02
2022-10-20T07:22:57.821Z,1020.01
2022-10-20T07:23:57.827Z,1020.03
2022-10-20T07:24:57.798Z,1020.00
2022-10-20T07:25:57.837Z,1020.01
2022-10-20T07:26:57.812Z,1019.96
2022-10-20T07:27:57.797Z,1019.97
2022-10-20T07:28:57.771Z,1019.98
2022-10-20T07:29:57.772Z,1019.99
2022-10-20T07:30:57.732Z,1019.99
2022-10-20T07:31:59.944Z,1020.02
2022-10-20T07:32:57.726Z,1019.99
2022-10-20T07:34:07.019Z,1019.98
2022-10-20T07:34:57.693Z,1019.97
2022-10-20T07:35:57.686Z,1019.95
2022-10-20T07:36:57.673Z,1019.92
2022-10-20T07:37:57.697Z,1019.90
2022-10-20T07:38:57.694Z,1019.85
2022-10-20T07:39:57.680Z,1019.85
2022-10-20T07:41:00.639Z,1019.86
2022-10-20T07:41:57.622Z,1019.84
2022-10-20T07:42:57.612Z,1019.81
2022-10-20T07:43:57.617Z,1019.80
2022-10-20T07:44:57.646Z,1019.78
2022-10-20T07:45:57.601Z,1019.79
2022-10-20T07:46:57.573Z,1019.78
2022-10-20T07:47:57.565Z,1019.79
2022-10-20T07:49:11.412Z,1019.77
2022-10-20T07:49:57.600Z,1019.75
2022-10-20T07:50:57.545Z,1019.74
2022-10-20T07:51:57.533Z,1019.70
2022-10-20T07:52:57.510Z,1019.71
2022-10-20T07:53:59.752Z,1019.67
2022-10-20T07:55:06.389Z,1019.70
2022-10-20T07:55:57.522Z,1019.71
2022-10-20T07:56:57.494Z,1019.70
2022-10-20T07:57:57.498Z,1019.66
2022-10-20T07:58:57.469Z,1019.70
2022-10-20T07:59:57.489Z,1019.69
2022-10-20T08:00:57.422Z,1019.65
2022-10-20T08:01:59.555Z,1019.65
2022-10-20T08:02:57.421Z,1019.62
2022-10-20T08:03:57.450Z,1019.61
2022-10-20T08:04:57.406Z,1019.61
2022-10-20T08:05:57.377Z,1019.62
2022-10-20T08:06:57.379Z,1019.58
2022-10-20T08:07:58.327Z,1019.59
2022-10-20T08:08:57.410Z,1019.56
2022-10-20T08:09:57.346Z,1019.54
2022-10-20T08:10:57.399Z,1019.60
2022-10-20T08:11:57.323Z,1019.59
2022-10-20T08:12:57.312Z,1019.59
2022-10-20T08:13:57.349Z,1019.58
2022-10-20T08:14:57.322Z,1019.59
2022-10-20T08:15:58.205Z,1019.58
2022-10-20T08:16:59.080Z,1019.57
2022-10-20T08:17:57.267Z,1019.56
2022-10-20T08:18:58.053Z,1019.57
2022-10-20T08:20:00.096Z,1019.57
2022-10-20T08:20:57.213Z,1019.55
2022-10-20T08:21:57.241Z,1019.54
2022-10-20T08:22:57.203Z,1019.56
2022-10-20T08:23:57.594Z,1019.54
2022-10-20T08:24:57.202Z,1019.54
2022-10-20T08:25:57.167Z,1019.52
2022-10-20T08:26:57.202Z,1019.49
2022-10-20T08:28:57.595Z,1019.48
2022-10-20T08:30:06.196Z,1019.46
2022-10-20T08:30:57.115Z,1019.46
2022-10-20T08:31:57.120Z,1019.46
2022-10-20T08:32:57.104Z,1019.47
2022-10-20T08:33:57.105Z,1019.43
2022-10-20T08:34:57.080Z,1019.42
2022-10-20T08:35:57.068Z,1019.43
2022-10-20T08:36:57.063Z,1019.40
2022-10-20T08:37:57.100Z,1019.40
2022-10-20T08:38:58.239Z,1019.45
2022-10-20T08:39:57.023Z,1019.43
2022-10-20T08:40:57.037Z,1019.44
2022-10-20T08:42:08.680Z,1019.42
2022-10-20T08:42:56.988Z,1019.42
2022-10-20T08:43:57.008Z,1019.43
2022-10-20T08:44:56.972Z,1019.43
2022-10-20T08:45:56.983Z,1019.41
2022-10-20T08:46:56.942Z,1019.39
2022-10-20T08:47:56.943Z,1019.39
2022-10-20T08:48:56.940Z,1019.40
2022-10-20T08:49:56.919Z,1019.39
2022-10-20T08:50:56.904Z,1019.37
2022-10-20T08:51:56.891Z,1019.36
2022-10-20T08:52:56.880Z,1019.38
2022-10-20T08:53:56.873Z,1019.38
2022-10-20T08:54:56.868Z,1019.42
2022-10-20T08:55:56.859Z,1019.46
2022-10-20T08:56:56.859Z,1019.43
2022-10-20T08:57:56.834Z,1019.44
2022-10-20T08:58:56.837Z,1019.42
2022-10-20T08:59:56.808Z,1019.39
2022-10-20T09:00:56.859Z,1019.43
2022-10-20T09:01:56.958Z,1019.37
2022-10-20T09:02:56.775Z,1019.41
2022-10-20T09:03:56.768Z,1019.37
2022-10-20T09:04:56.775Z,1019.40
2022-10-20T09:05:56.759Z,1019.41
2022-10-20T09:06:56.738Z,1019.37
2022-10-20T09:07:56.747Z,1019.36
2022-10-20T09:08:56.773Z,1019.34
2022-10-20T09:09:56.727Z,1019.39
2022-10-20T09:10:56.705Z,1019.31
2022-10-20T09:11:56.694Z,1019.32
2022-10-20T09:12:56.672Z,1019.30
2022-10-20T09:13:56.673Z,1019.21
2022-10-20T09:14:56.691Z,1019.23
2022-10-20T09:15:56.674Z,1019.25
2022-10-20T09:17:00.354Z,1019.29
2022-10-20T09:17:56.622Z,1019.29
2022-10-20T09:18:56.639Z,1019.33
2022-10-20T09:19:56.611Z,1019.33
2022-10-20T09:20:56.595Z,1019.34
2022-10-20T09:21:56.602Z,1019.30
2022-10-20T09:22:56.598Z,1019.30
2022-10-20T09:23:56.594Z,1019.26
2022-10-20T09:24:56.561Z,1019.23
2022-10-20T09:25:56.571Z,1019.21
2022-10-20T09:27:00.252Z,1019.19
2022-10-20T09:27:56.520Z,1019.19
2022-10-20T09:29:12.373Z,1019.21
2022-10-20T09:29:56.546Z,1019.18
2022-10-20T09:30:56.559Z,1019.16
2022-10-20T09:31:56.502Z,1019.12
2022-10-20T09:32:56.842Z,1019.11
2022-10-20T09:33:56.489Z,1019.10
2022-10-20T09:34:56.506Z,1019.05
2022-10-20T09:35:56.461Z,1019.00
2022-10-20T09:36:56.425Z,1018.99
2022-10-20T09:37:56.451Z,1018.98
2022-10-20T09:38:56.412Z,1018.94
2022-10-20T09:39:56.409Z,1018.94
2022-10-20T09:40:56.423Z,1018.90
2022-10-20T09:41:56.425Z,1018.89
2022-10-20T09:42:56.367Z,1018.91
2022-10-20T09:43:58.047Z,1018.88
2022-10-20T09:44:56.360Z,1018.86
2022-10-20T09:45:56.345Z,1018.84
2022-10-20T09:46:56.324Z,1018.85
2022-10-20T09:47:56.364Z,1018.86
2022-10-20T09:48:56.293Z,1018.85
2022-10-20T09:50:00.781Z,1018.85
2022-10-20T09:50:56.280Z,1018.83
2022-10-20T09:51:56.295Z,1018.82
2022-10-20T09:52:56.272Z,1018.78
2022-10-20T09:53:56.284Z,1018.76
2022-10-20T09:54:56.286Z,1018.78
2022-10-20T09:55:56.248Z,1018.71
2022-10-20T09:56:56.235Z,1018.71
2022-10-20T09:57:56.240Z,1018.71
2022-10-20T09:58:56.195Z,1018.65
2022-10-20T09:59:58.655Z,1018.66
2022-10-20T10:00:56.268Z,1018.62
2022-10-20T10:01:56.171Z,1018.61
2022-10-20T10:02:56.169Z,1018.58
2022-10-20T10:03:56.165Z,1018.58
2022-10-20T10:04:56.142Z,1018.55
2022-10-20T10:05:56.165Z,1018.54
2022-10-20T10:06:56.131Z,1018.51
2022-10-20T10:07:56.151Z,1018.50
2022-10-20T10:08:56.129Z,1018.47
2022-10-20T10:09:56.082Z,1018.48
2022-10-20T10:10:56.066Z,1018.47
2022-10-20T10:11:56.077Z,1018.49
2022-10-20T10:12:56.221Z,1018.42
2022-10-20T10:13:56.060Z,1018.44
2022-10-20T10:14:56.030Z,1018.43
2022-10-20T10:15:56.027Z,1018.44
2022-10-20T10:16:56.027Z,1018.42
2022-10-20T10:17:56.022Z,1018.35
2022-10-20T10:18:56.022Z,1018.37
2022-10-20T10:19:56.528Z,1018.34
2022-10-20T10:20:55.972Z,1018.33
2022-10-20T10:21:55.961Z,1018.28
2022-10-20T10:22:55.948Z,1018.26
2022-10-20T10:23:55.942Z,1018.25
2022-10-20T10:24:55.962Z,1018.20
2022-10-20T10:25:59.229Z,1018.17
2022-10-20T10:26:55.957Z,1018.13
2022-10-20T10:27:55.891Z,1018.10
2022-10-20T10:28:55.894Z,1018.10
2022-10-20T10:29:55.878Z,1018.07
2022-10-20T10:30:55.881Z,1018.03
2022-10-20T10:31:55.871Z,1018.06
2022-10-20T10:32:55.851Z,1018.05
2022-10-20T10:33:55.850Z,1018.08
2022-10-20T10:34:55.832Z,1018.01
2022-10-20T10:35:55.812Z,1018.04
2022-10-20T10:36:55.801Z,1017.96
2022-10-20T10:37:55.783Z,1017.93
2022-10-20T10:38:55.793Z,1017.90
2022-10-20T10:39:55.761Z,1017.78
2022-10-20T10:40:55.769Z,1017.87
2022-10-20T10:41:55.783Z,1017.82
2022-10-20T10:42:55.735Z,1017.79
2022-10-20T10:43:55.790Z,1017.83
2022-10-20T10:44:55.740Z,1017.93
2022-10-20T10:45:55.748Z,1017.91
2022-10-20T10:46:55.698Z,1017.85
2022-10-20T10:47:55.719Z,1017.80
2022-10-20T10:48:55.700Z,1017.83
2022-10-20T10:49:55.693Z,1017.82
2022-10-20T10:50:55.677Z,1017.89
2022-10-20T10:51:55.682Z,1017.91
2022-10-20T10:52:55.638Z,1017.83
2022-10-20T10:53:55.665Z,1017.82
2022-10-20T10:54:55.617Z,1017.81
2022-10-20T10:55:55.662Z,1017.72
2022-10-20T10:56:55.802Z,1017.76
2022-10-20T10:57:55.578Z,1017.69
2022-10-20T10:58:55.598Z,1017.69
2022-10-20T10:59:56.518Z,1017.63
2022-10-20T11:00:55.592Z,1017.64
2022-10-20T11:01:55.537Z,1017.56
2022-10-20T11:02:55.538Z,1017.51
2022-10-20T11:03:55.554Z,1017.48
2022-10-20T11:04:55.521Z,1017.44
2022-10-20T11:05:55.529Z,1017.47
2022-10-20T11:06:57.892Z,1017.44
2022-10-20T11:07:55.513Z,1017.43
2022-10-20T11:08:55.516Z,1017.40
2022-10-20T11:09:55.485Z,1017.42
2022-10-20T11:10:55.449Z,1017.41
2022-10-20T11:11:55.475Z,1017.40
2022-10-20T11:12:55.423Z,1017.37
2022-10-20T11:13:55.477Z,1017.36
2022-10-20T11:14:55.405Z,1017.30
2022-10-20T11:15:55.436Z,1017.36
2022-10-20T11:16:55.393Z,1017.24
2022-10-20T11:17:55.550Z,1017.31
2022-10-20T11:18:55.559Z,1017.26
2022-10-20T11:19:55.450Z,1017.25
2022-10-20T11:20:55.337Z,1017.23
2022-10-20T11:21:55.334Z,1017.18
2022-10-20T11:22:55.337Z,1017.18
2022-10-20T11:23:55.321Z,1017.23
2022-10-20T11:24:55.309Z,1017.15
2022-10-20T11:25:55.285Z,1017.19
2022-10-20T11:26:55.270Z,1017.17
2022-10-20T11:27:55.454Z,1017.10
2022-10-20T11:28:55.263Z,1017.07
2022-10-20T11:29:55.238Z,1017.03
2022-10-20T11:30:55.233Z,1016.99
2022-10-20T11:31:55.218Z,1016.97
2022-10-20T11:32:55.211Z,1016.95
2022-10-20T11:33:55.211Z,1016.93
2022-10-20T11:34:55.201Z,1016.92
2022-10-20T11:35:55.172Z,1016.88
2022-10-20T11:36:55.217Z,1016.86
2022-10-20T11:37:55.163Z,1016.81
2022-10-20T11:38:55.175Z,1016.84
2022-10-20T11:39:55.173Z,1016.81
2022-10-20T11:40:55.199Z,1016.79
2022-10-20T11:41:55.125Z,1016.85
2022-10-20T11:42:55.179Z,1016.81
2022-10-20T11:43:55.128Z,1016.82
2022-10-20T11:44:55.129Z,1016.79
2022-10-20T11:45:55.078Z,1016.79
2022-10-20T11:46:55.079Z,1016.74
2022-10-20T11:47:55.046Z,1016.70
2022-10-20T11:48:55.100Z,1016.73
2022-10-20T11:49:55.066Z,1016.67
2022-10-20T11:50:56.104Z,1016.68
2022-10-20T11:51:55.008Z,1016.75
2022-10-20T11:52:55.083Z,1016.71
2022-10-20T11:53:55.016Z,1016.70
2022-10-20T11:54:55.157Z,1016.66
2022-10-20T11:55:54.976Z,1016.71
2022-10-20T11:56:55.536Z,1016.68
2022-10-20T11:57:57.576Z,1016.71
2022-10-20T11:58:55.078Z,1016.65
2022-10-20T11:59:54.936Z,1016.62
2022-10-20T12:00:57.577Z,1016.61
2022-10-20T12:01:54.979Z,1016.65
2022-10-20T12:02:54.951Z,1016.57
2022-10-20T12:03:54.907Z,1016.63
2022-10-20T12:04:54.908Z,1016.61
2022-10-20T12:05:54.870Z,1016.64
2022-10-20T12:06:54.868Z,1016.64
2022-10-20T12:08:11.021Z,1016.63